sensor_id;sensor_type;location;lat;lon;timestamp;P1;durP1;ratioP1;P2;durP2;ratioP2
17925;SDS011;9088;55.674;13.354;2023-03-21T00:01:45;3.70;;;3.60;;
17925;SDS011;9088;55.674;13.354;2023-03-21T00:04:16;3.80;;;3.70;;
17925;SDS011;9088;55.674;13.354;2023-03-21T00:06:43;3.70;;;3.60;;
17925;SDS011;9088;55.674;13.354;2023-03-21T00:09:10;3.90;;;3.80;;
17925;SDS011;9088;55.674;13.354;2023-03-21T00:11:37;4.00;;;3.90;;
17925;SDS011;9088;55.674;13.354;2023-03-21T00:14:08;3.83;;;3.73;;
17925;SDS011;9088;55.674;13.354;2023-03-21T00:16:39;4.07;;;3.97;;
17925;SDS011;9088;55.674;13.354;2023-03-21T00:19:06;4.00;;;3.90;;
17925;SDS011;9088;55.674;13.354;2023-03-21T00:21:35;4.10;;;4.00;;
17925;SDS011;9088;55.674;13.354;2023-03-21T00:24:05;4.10;;;4.00;;
17925;SDS011;9088;55.674;13.354;2023-03-21T00:26:35;4.10;;;4.00;;
17925;SDS011;9088;55.674;13.354;2023-03-21T00:29:03;4.00;;;3.90;;
17925;SDS011;9088;55.674;13.354;2023-03-21T00:31:30;4.10;;;4.00;;
17925;SDS011;9088;55.674;13.354;2023-03-21T00:33:57;4.00;;;3.90;;
17925;SDS011;9088;55.674;13.354;2023-03-21T00:36:24;4.10;;;4.00;;
17925;SDS011;9088;55.674;13.354;2023-03-21T00:38:52;4.00;;;3.90;;
17925;SDS011;9088;55.674;13.354;2023-03-21T00:41:19;4.00;;;3.90;;
17925;SDS011;9088;55.674;13.354;2023-03-21T00:43:46;4.10;;;4.00;;
17925;SDS011;9088;55.674;13.354;2023-03-21T00:46:13;4.40;;;4.20;;
17925;SDS011;9088;55.674;13.354;2023-03-21T00:48:41;4.70;;;4.50;;
17925;SDS011;9088;55.674;13.354;2023-03-21T00:51:11;4.50;;;4.30;;
17925;SDS011;9088;55.674;13.354;2023-03-21T00:53:40;4.57;;;4.37;;
17925;SDS011;9088;55.674;13.354;2023-03-21T00:56:09;4.50;;;4.30;;
17925;SDS011;9088;55.674;13.354;2023-03-21T00:58:38;4.50;;;4.30;;
17925;SDS011;9088;55.674;13.354;2023-03-21T01:01:06;4.67;;;4.47;;
17925;SDS011;9088;55.674;13.354;2023-03-21T01:03:33;4.50;;;4.30;;
17925;SDS011;9088;55.674;13.354;2023-03-21T01:06:08;4.40;;;4.20;;
17925;SDS011;9088;55.674;13.354;2023-03-21T01:08:38;4.50;;;4.30;;
17925;SDS011;9088;55.674;13.354;2023-03-21T01:11:06;4.50;;;4.30;;
17925;SDS011;9088;55.674;13.354;2023-03-21T01:13:35;4.40;;;4.20;;
17925;SDS011;9088;55.674;13.354;2023-03-21T01:16:03;4.50;;;4.30;;
17925;SDS011;9088;55.674;13.354;2023-03-21T01:18:30;4.40;;;4.20;;
17925;SDS011;9088;55.674;13.354;2023-03-21T01:20:58;4.50;;;4.30;;
17925;SDS011;9088;55.674;13.354;2023-03-21T01:23:25;3.90;;;3.80;;
17925;SDS011;9088;55.674;13.354;2023-03-21T01:25:53;4.00;;;3.90;;
17925;SDS011;9088;55.674;13.354;2023-03-21T01:28:20;3.93;;;3.83;;
17925;SDS011;9088;55.674;13.354;2023-03-21T01:30:49;4.20;;;4.10;;
17925;SDS011;9088;55.674;13.354;2023-03-21T01:33:17;4.23;;;4.10;;
17925;SDS011;9088;55.674;13.354;2023-03-21T01:35:44;3.90;;;3.80;;
17925;SDS011;9088;55.674;13.354;2023-03-21T01:38:12;3.80;;;3.70;;
17925;SDS011;9088;55.674;13.354;2023-03-21T01:40:39;3.90;;;3.80;;
17925;SDS011;9088;55.674;13.354;2023-03-21T01:43:15;3.77;;;3.67;;
17925;SDS011;9088;55.674;13.354;2023-03-21T01:48:32;4.00;;;3.90;;
17925;SDS011;9088;55.674;13.354;2023-03-21T01:51:02;3.90;;;3.80;;
17925;SDS011;9088;55.674;13.354;2023-03-21T01:53:30;3.80;;;3.70;;
17925;SDS011;9088;55.674;13.354;2023-03-21T01:55:58;4.03;;;3.93;;
17925;SDS011;9088;55.674;13.354;2023-03-21T01:58:27;4.10;;;4.00;;
17925;SDS011;9088;55.674;13.354;2023-03-21T02:00:54;4.10;;;4.00;;
17925;SDS011;9088;55.674;13.354;2023-03-21T02:03:21;4.27;;;4.10;;
17925;SDS011;9088;55.674;13.354;2023-03-21T02:05:51;4.20;;;4.10;;
17925;SDS011;9088;55.674;13.354;2023-03-21T02:08:20;4.40;;;4.20;;
17925;SDS011;9088;55.674;13.354;2023-03-21T02:10:48;4.37;;;4.20;;
17925;SDS011;9088;55.674;13.354;2023-03-21T02:13:15;4.60;;;4.40;;
17925;SDS011;9088;55.674;13.354;2023-03-21T02:15:44;4.50;;;4.30;;
17925;SDS011;9088;55.674;13.354;2023-03-21T02:18:13;4.60;;;4.40;;
17925;SDS011;9088;55.674;13.354;2023-03-21T02:20:50;4.50;;;4.30;;
17925;SDS011;9088;55.674;13.354;2023-03-21T02:23:29;4.60;;;4.40;;
17925;SDS011;9088;55.674;13.354;2023-03-21T02:26:13;4.90;;;4.70;;
17925;SDS011;9088;55.674;13.354;2023-03-21T02:28:46;4.60;;;4.40;;
17925;SDS011;9088;55.674;13.354;2023-03-21T02:31:25;4.90;;;4.70;;
17925;SDS011;9088;55.674;13.354;2023-03-21T02:37:07;4.60;;;4.40;;
17925;SDS011;9088;55.674;13.354;2023-03-21T02:39:39;4.50;;;4.30;;
17925;SDS011;9088;55.674;13.354;2023-03-21T02:42:07;4.80;;;4.60;;
17925;SDS011;9088;55.674;13.354;2023-03-21T02:44:38;4.80;;;4.60;;
17925;SDS011;9088;55.674;13.354;2023-03-21T02:47:08;4.80;;;4.60;;
17925;SDS011;9088;55.674;13.354;2023-03-21T02:49:39;4.70;;;4.50;;
17925;SDS011;9088;55.674;13.354;2023-03-21T02:52:09;4.63;;;4.43;;
17925;SDS011;9088;55.674;13.354;2023-03-21T02:54:37;4.70;;;4.50;;
17925;SDS011;9088;55.674;13.354;2023-03-21T02:57:09;4.80;;;4.60;;
17925;SDS011;9088;55.674;13.354;2023-03-21T02:59:37;4.80;;;4.60;;
17925;SDS011;9088;55.674;13.354;2023-03-21T03:02:05;4.90;;;4.70;;
17925;SDS011;9088;55.674;13.354;2023-03-21T03:04:32;4.77;;;4.57;;
17925;SDS011;9088;55.674;13.354;2023-03-21T03:07:02;4.90;;;4.70;;
17925;SDS011;9088;55.674;13.354;2023-03-21T03:09:36;5.00;;;4.80;;
17925;SDS011;9088;55.674;13.354;2023-03-21T03:12:06;4.60;;;4.40;;
17925;SDS011;9088;55.674;13.354;2023-03-21T03:14:39;5.00;;;4.80;;
17925;SDS011;9088;55.674;13.354;2023-03-21T03:17:15;5.10;;;4.90;;
17925;SDS011;9088;55.674;13.354;2023-03-21T03:19:44;4.90;;;4.70;;
17925;SDS011;9088;55.674;13.354;2023-03-21T03:22:16;4.90;;;4.70;;
17925;SDS011;9088;55.674;13.354;2023-03-21T03:24:49;4.80;;;4.60;;
17925;SDS011;9088;55.674;13.354;2023-03-21T03:27:22;5.00;;;4.80;;
17925;SDS011;9088;55.674;13.354;2023-03-21T03:29:51;5.10;;;4.90;;
17925;SDS011;9088;55.674;13.354;2023-03-21T03:32:20;5.20;;;5.00;;
17925;SDS011;9088;55.674;13.354;2023-03-21T03:34:49;4.90;;;4.70;;
17925;SDS011;9088;55.674;13.354;2023-03-21T03:37:20;5.00;;;4.80;;
17925;SDS011;9088;55.674;13.354;2023-03-21T03:39:52;5.20;;;5.00;;
17925;SDS011;9088;55.674;13.354;2023-03-21T03:42:23;5.20;;;5.00;;
17925;SDS011;9088;55.674;13.354;2023-03-21T03:44:51;5.10;;;4.90;;
17925;SDS011;9088;55.674;13.354;2023-03-21T03:47:20;5.17;;;4.97;;
17925;SDS011;9088;55.674;13.354;2023-03-21T03:49:49;5.10;;;4.90;;
17925;SDS011;9088;55.674;13.354;2023-03-21T03:52:19;5.30;;;5.10;;
17925;SDS011;9088;55.674;13.354;2023-03-21T03:54:48;5.27;;;5.07;;
17925;SDS011;9088;55.674;13.354;2023-03-21T03:57:17;5.30;;;5.10;;
17925;SDS011;9088;55.674;13.354;2023-03-21T03:59:45;5.20;;;5.00;;
17925;SDS011;9088;55.674;13.354;2023-03-21T04:02:12;5.43;;;5.23;;
17925;SDS011;9088;55.674;13.354;2023-03-21T04:04:41;5.33;;;5.13;;
17925;SDS011;9088;55.674;13.354;2023-03-21T04:07:08;5.13;;;4.93;;
17925;SDS011;9088;55.674;13.354;2023-03-21T04:09:35;5.30;;;5.10;;
17925;SDS011;9088;55.674;13.354;2023-03-21T04:12:02;5.27;;;5.07;;
17925;SDS011;9088;55.674;13.354;2023-03-21T04:14:30;5.17;;;4.97;;
17925;SDS011;9088;55.674;13.354;2023-03-21T04:16:57;4.90;;;4.70;;
17925;SDS011;9088;55.674;13.354;2023-03-21T04:19:24;5.23;;;5.03;;
17925;SDS011;9088;55.674;13.354;2023-03-21T04:21:51;5.27;;;5.07;;
17925;SDS011;9088;55.674;13.354;2023-03-21T04:24:18;5.00;;;4.80;;
17925;SDS011;9088;55.674;13.354;2023-03-21T04:26:46;4.83;;;4.63;;
17925;SDS011;9088;55.674;13.354;2023-03-21T04:29:13;5.00;;;4.80;;
17925;SDS011;9088;55.674;13.354;2023-03-21T04:31:42;4.90;;;4.70;;
17925;SDS011;9088;55.674;13.354;2023-03-21T04:34:09;4.80;;;4.60;;
17925;SDS011;9088;55.674;13.354;2023-03-21T04:36:39;4.97;;;4.77;;
17925;SDS011;9088;55.674;13.354;2023-03-21T04:39:09;4.57;;;4.37;;
17925;SDS011;9088;55.674;13.354;2023-03-21T04:41:37;4.70;;;4.50;;
17925;SDS011;9088;55.674;13.354;2023-03-21T04:44:04;4.70;;;4.50;;
17925;SDS011;9088;55.674;13.354;2023-03-21T04:46:31;4.90;;;4.70;;
17925;SDS011;9088;55.674;13.354;2023-03-21T04:49:00;4.93;;;4.73;;
17925;SDS011;9088;55.674;13.354;2023-03-21T04:51:27;4.87;;;4.67;;
17925;SDS011;9088;55.674;13.354;2023-03-21T04:53:54;4.90;;;4.70;;
17925;SDS011;9088;55.674;13.354;2023-03-21T04:56:22;4.87;;;4.67;;
17925;SDS011;9088;55.674;13.354;2023-03-21T04:58:54;3.93;;;3.83;;
17925;SDS011;9088;55.674;13.354;2023-03-21T05:01:22;4.50;;;4.30;;
17925;SDS011;9088;55.674;13.354;2023-03-21T05:03:49;4.70;;;4.50;;
17925;SDS011;9088;55.674;13.354;2023-03-21T05:06:18;5.20;;;5.00;;
17925;SDS011;9088;55.674;13.354;2023-03-21T05:08:45;4.90;;;4.70;;
17925;SDS011;9088;55.674;13.354;2023-03-21T05:11:12;4.80;;;4.60;;
17925;SDS011;9088;55.674;13.354;2023-03-21T05:13:39;4.83;;;4.63;;
17925;SDS011;9088;55.674;13.354;2023-03-21T05:16:06;4.90;;;4.70;;
17925;SDS011;9088;55.674;13.354;2023-03-21T05:18:34;4.70;;;4.50;;
17925;SDS011;9088;55.674;13.354;2023-03-21T05:21:02;4.60;;;4.40;;
17925;SDS011;9088;55.674;13.354;2023-03-21T05:23:35;4.40;;;4.20;;
17925;SDS011;9088;55.674;13.354;2023-03-21T05:26:06;16.20;;;15.50;;
17925;SDS011;9088;55.674;13.354;2023-03-21T05:28:35;20.73;;;19.83;;
17925;SDS011;9088;55.674;13.354;2023-03-21T05:31:04;20.03;;;19.23;;
17925;SDS011;9088;55.674;13.354;2023-03-21T05:33:31;19.90;;;19.10;;
17925;SDS011;9088;55.674;13.354;2023-03-21T05:36:04;20.13;;;19.30;;
17925;SDS011;9088;55.674;13.354;2023-03-21T05:38:31;21.97;;;21.07;;
17925;SDS011;9088;55.674;13.354;2023-03-21T05:41:00;21.23;;;20.33;;
17925;SDS011;9088;55.674;13.354;2023-03-21T05:43:27;4.37;;;4.17;;
17925;SDS011;9088;55.674;13.354;2023-03-21T05:45:54;19.30;;;18.50;;
17925;SDS011;9088;55.674;13.354;2023-03-21T05:48:21;19.40;;;18.60;;
17925;SDS011;9088;55.674;13.354;2023-03-21T05:50:48;19.97;;;19.17;;
17925;SDS011;9088;55.674;13.354;2023-03-21T05:53:15;19.37;;;18.57;;
17925;SDS011;9088;55.674;13.354;2023-03-21T05:55:42;20.53;;;19.63;;
17925;SDS011;9088;55.674;13.354;2023-03-21T05:58:11;19.60;;;18.80;;
17925;SDS011;9088;55.674;13.354;2023-03-21T06:00:38;16.10;;;15.40;;
17925;SDS011;9088;55.674;13.354;2023-03-21T06:03:05;16.57;;;15.87;;
17925;SDS011;9088;55.674;13.354;2023-03-21T06:05:32;16.80;;;16.10;;
17925;SDS011;9088;55.674;13.354;2023-03-21T06:07:59;15.03;;;14.43;;
17925;SDS011;9088;55.674;13.354;2023-03-21T06:10:26;15.67;;;15.00;;
17925;SDS011;9088;55.674;13.354;2023-03-21T06:12:53;15.60;;;15.00;;
17925;SDS011;9088;55.674;13.354;2023-03-21T06:15:22;14.83;;;14.23;;
17925;SDS011;9088;55.674;13.354;2023-03-21T06:17:50;14.47;;;13.87;;
17925;SDS011;9088;55.674;13.354;2023-03-21T06:20:17;13.90;;;13.30;;
17925;SDS011;9088;55.674;13.354;2023-03-21T06:22:44;13.50;;;12.93;;
17925;SDS011;9088;55.674;13.354;2023-03-21T06:25:11;13.47;;;12.93;;
17925;SDS011;9088;55.674;13.354;2023-03-21T06:27:38;13.87;;;13.27;;
17925;SDS011;9088;55.674;13.354;2023-03-21T06:30:06;13.07;;;12.57;;
17925;SDS011;9088;55.674;13.354;2023-03-21T06:32:34;14.00;;;13.40;;
17925;SDS011;9088;55.674;13.354;2023-03-21T06:35:02;14.23;;;13.63;;
17925;SDS011;9088;55.674;13.354;2023-03-21T06:37:29;13.60;;;13.00;;
17925;SDS011;9088;55.674;13.354;2023-03-21T06:39:56;13.80;;;13.20;;
17925;SDS011;9088;55.674;13.354;2023-03-21T06:42:23;14.10;;;13.50;;
17925;SDS011;9088;55.674;13.354;2023-03-21T06:44:50;14.17;;;13.57;;
17925;SDS011;9088;55.674;13.354;2023-03-21T06:47:17;14.10;;;13.50;;
17925;SDS011;9088;55.674;13.354;2023-03-21T06:49:48;13.90;;;13.30;;
17925;SDS011;9088;55.674;13.354;2023-03-21T06:52:15;14.40;;;13.80;;
17925;SDS011;9088;55.674;13.354;2023-03-21T06:54:42;13.80;;;13.20;;
17925;SDS011;9088;55.674;13.354;2023-03-21T06:57:09;15.10;;;14.50;;
17925;SDS011;9088;55.674;13.354;2023-03-21T06:59:37;14.47;;;13.87;;
17925;SDS011;9088;55.674;13.354;2023-03-21T07:02:05;14.00;;;13.40;;
17925;SDS011;9088;55.674;13.354;2023-03-21T07:04:32;15.50;;;14.90;;
17925;SDS011;9088;55.674;13.354;2023-03-21T07:07:01;15.10;;;14.50;;
17925;SDS011;9088;55.674;13.354;2023-03-21T07:09:28;14.13;;;13.53;;
17925;SDS011;9088;55.674;13.354;2023-03-21T07:11:55;12.47;;;11.97;;
17925;SDS011;9088;55.674;13.354;2023-03-21T07:14:22;14.93;;;14.33;;
17925;SDS011;9088;55.674;13.354;2023-03-21T07:16:50;15.00;;;14.40;;
17925;SDS011;9088;55.674;13.354;2023-03-21T07:19:17;14.47;;;13.87;;
17925;SDS011;9088;55.674;13.354;2023-03-21T07:21:44;14.83;;;14.23;;
17925;SDS011;9088;55.674;13.354;2023-03-21T07:24:12;13.07;;;12.57;;
17925;SDS011;9088;55.674;13.354;2023-03-21T07:26:41;13.50;;;12.97;;
17925;SDS011;9088;55.674;13.354;2023-03-21T07:29:08;13.97;;;13.37;;
17925;SDS011;9088;55.674;13.354;2023-03-21T07:31:38;13.03;;;12.53;;
17925;SDS011;9088;55.674;13.354;2023-03-21T07:34:08;13.07;;;12.57;;
17925;SDS011;9088;55.674;13.354;2023-03-21T07:36:35;12.10;;;11.60;;
17925;SDS011;9088;55.674;13.354;2023-03-21T07:39:02;12.87;;;12.37;;
17925;SDS011;9088;55.674;13.354;2023-03-21T07:41:31;12.90;;;12.40;;
17925;SDS011;9088;55.674;13.354;2023-03-21T07:43:58;11.60;;;11.10;;
17925;SDS011;9088;55.674;13.354;2023-03-21T07:46:27;12.57;;;12.07;;
17925;SDS011;9088;55.674;13.354;2023-03-21T07:48:54;12.47;;;11.97;;
17925;SDS011;9088;55.674;13.354;2023-03-21T07:51:21;12.27;;;11.77;;
17925;SDS011;9088;55.674;13.354;2023-03-21T07:53:48;12.07;;;11.57;;
17925;SDS011;9088;55.674;13.354;2023-03-21T07:56:15;12.37;;;11.87;;
17925;SDS011;9088;55.674;13.354;2023-03-21T07:58:44;11.93;;;11.43;;
17925;SDS011;9088;55.674;13.354;2023-03-21T08:01:13;12.07;;;11.57;;
17925;SDS011;9088;55.674;13.354;2023-03-21T08:03:40;10.60;;;10.20;;
17925;SDS011;9088;55.674;13.354;2023-03-21T08:06:10;10.77;;;10.37;;
17925;SDS011;9088;55.674;13.354;2023-03-21T08:08:37;11.47;;;10.97;;
17925;SDS011;9088;55.674;13.354;2023-03-21T08:11:05;10.30;;;9.90;;
17925;SDS011;9088;55.674;13.354;2023-03-21T08:13:32;9.57;;;9.17;;
17925;SDS011;9088;55.674;13.354;2023-03-21T08:16:00;10.53;;;10.13;;
17925;SDS011;9088;55.674;13.354;2023-03-21T08:18:27;10.40;;;10.00;;
17925;SDS011;9088;55.674;13.354;2023-03-21T08:20:56;10.07;;;9.67;;
17925;SDS011;9088;55.674;13.354;2023-03-21T08:23:24;10.47;;;10.07;;
17925;SDS011;9088;55.674;13.354;2023-03-21T08:25:51;10.17;;;9.77;;
17925;SDS011;9088;55.674;13.354;2023-03-21T08:28:18;10.27;;;9.87;;
17925;SDS011;9088;55.674;13.354;2023-03-21T08:30:45;9.80;;;9.40;;
17925;SDS011;9088;55.674;13.354;2023-03-21T08:33:14;8.83;;;8.50;;
17925;SDS011;9088;55.674;13.354;2023-03-21T08:35:42;9.27;;;8.87;;
17925;SDS011;9088;55.674;13.354;2023-03-21T08:38:10;8.80;;;8.50;;
17925;SDS011;9088;55.674;13.354;2023-03-21T08:40:37;8.10;;;7.80;;
17925;SDS011;9088;55.674;13.354;2023-03-21T08:43:05;7.00;;;6.70;;
17925;SDS011;9088;55.674;13.354;2023-03-21T08:45:32;6.50;;;6.30;;
17925;SDS011;9088;55.674;13.354;2023-03-21T08:48:02;5.77;;;5.57;;
17925;SDS011;9088;55.674;13.354;2023-03-21T08:50:31;6.30;;;6.10;;
17925;SDS011;9088;55.674;13.354;2023-03-21T08:52:58;6.97;;;6.67;;
17925;SDS011;9088;55.674;13.354;2023-03-21T08:55:27;6.90;;;6.60;;
17925;SDS011;9088;55.674;13.354;2023-03-21T08:57:57;7.13;;;6.83;;
17925;SDS011;9088;55.674;13.354;2023-03-21T09:00:24;6.80;;;6.50;;
17925;SDS011;9088;55.674;13.354;2023-03-21T09:02:51;6.93;;;6.63;;
17925;SDS011;9088;55.674;13.354;2023-03-21T09:05:20;7.07;;;6.77;;
17925;SDS011;9088;55.674;13.354;2023-03-21T09:07:48;6.63;;;6.40;;
17925;SDS011;9088;55.674;13.354;2023-03-21T09:12:44;6.90;;;6.60;;
17925;SDS011;9088;55.674;13.354;2023-03-21T09:15:11;5.50;;;5.30;;
17925;SDS011;9088;55.674;13.354;2023-03-21T09:17:38;6.00;;;5.80;;
17925;SDS011;9088;55.674;13.354;2023-03-21T09:20:07;6.77;;;6.47;;
17925;SDS011;9088;55.674;13.354;2023-03-21T09:22:35;6.90;;;6.60;;
17925;SDS011;9088;55.674;13.354;2023-03-21T09:25:04;7.30;;;7.00;;
17925;SDS011;9088;55.674;13.354;2023-03-21T09:27:35;7.03;;;6.73;;
17925;SDS011;9088;55.674;13.354;2023-03-21T09:30:03;6.87;;;6.57;;
17925;SDS011;9088;55.674;13.354;2023-03-21T09:32:31;8.00;;;7.70;;
17925;SDS011;9088;55.674;13.354;2023-03-21T09:34:58;8.20;;;7.90;;
17925;SDS011;9088;55.674;13.354;2023-03-21T09:37:25;7.70;;;7.40;;
17925;SDS011;9088;55.674;13.354;2023-03-21T09:39:56;8.47;;;8.17;;
17925;SDS011;9088;55.674;13.354;2023-03-21T09:42:28;9.57;;;9.17;;
17925;SDS011;9088;55.674;13.354;2023-03-21T09:45:01;8.20;;;7.90;;
17925;SDS011;9088;55.674;13.354;2023-03-21T09:47:34;9.07;;;8.67;;
17925;SDS011;9088;55.674;13.354;2023-03-21T09:50:10;7.87;;;7.57;;
17925;SDS011;9088;55.674;13.354;2023-03-21T09:52:41;8.30;;;8.00;;
17925;SDS011;9088;55.674;13.354;2023-03-21T09:55:13;8.57;;;8.27;;
17925;SDS011;9088;55.674;13.354;2023-03-21T09:57:46;9.33;;;8.93;;
17925;SDS011;9088;55.674;13.354;2023-03-21T10:00:16;9.80;;;9.40;;
17925;SDS011;9088;55.674;13.354;2023-03-21T10:02:49;9.40;;;9.00;;
17925;SDS011;9088;55.674;13.354;2023-03-21T10:05:18;9.10;;;8.70;;
17925;SDS011;9088;55.674;13.354;2023-03-21T10:07:50;8.43;;;8.13;;
17925;SDS011;9088;55.674;13.354;2023-03-21T10:10:21;8.90;;;8.50;;
17925;SDS011;9088;55.674;13.354;2023-03-21T10:12:50;8.30;;;8.00;;
17925;SDS011;9088;55.674;13.354;2023-03-21T10:15:19;7.90;;;7.60;;
17925;SDS011;9088;55.674;13.354;2023-03-21T10:17:52;9.20;;;8.80;;
17925;SDS011;9088;55.674;13.354;2023-03-21T10:20:21;8.27;;;7.97;;
17925;SDS011;9088;55.674;13.354;2023-03-21T10:22:49;9.07;;;8.67;;
17925;SDS011;9088;55.674;13.354;2023-03-21T10:25:17;9.10;;;8.70;;
17925;SDS011;9088;55.674;13.354;2023-03-21T10:27:44;9.20;;;8.80;;
17925;SDS011;9088;55.674;13.354;2023-03-21T10:30:19;9.17;;;8.77;;
17925;SDS011;9088;55.674;13.354;2023-03-21T10:32:47;9.33;;;8.93;;
17925;SDS011;9088;55.674;13.354;2023-03-21T10:35:14;9.67;;;9.27;;
17925;SDS011;9088;55.674;13.354;2023-03-21T10:37:41;9.47;;;9.07;;
17925;SDS011;9088;55.674;13.354;2023-03-21T10:40:10;7.60;;;7.30;;
17925;SDS011;9088;55.674;13.354;2023-03-21T10:42:40;9.10;;;8.70;;
17925;SDS011;9088;55.674;13.354;2023-03-21T10:45:12;8.57;;;8.27;;
17925;SDS011;9088;55.674;13.354;2023-03-21T10:47:47;8.40;;;8.10;;
17925;SDS011;9088;55.674;13.354;2023-03-21T10:50:16;9.37;;;8.97;;
17925;SDS011;9088;55.674;13.354;2023-03-21T10:52:49;9.20;;;8.80;;
17925;SDS011;9088;55.674;13.354;2023-03-21T10:55:24;9.23;;;8.83;;
17925;SDS011;9088;55.674;13.354;2023-03-21T10:57:54;9.43;;;9.03;;
17925;SDS011;9088;55.674;13.354;2023-03-21T11:00:23;8.67;;;8.37;;
17925;SDS011;9088;55.674;13.354;2023-03-21T11:02:52;9.73;;;9.33;;
17925;SDS011;9088;55.674;13.354;2023-03-21T11:05:21;9.90;;;9.50;;
17925;SDS011;9088;55.674;13.354;2023-03-21T11:07:55;9.60;;;9.20;;
17925;SDS011;9088;55.674;13.354;2023-03-21T11:10:25;10.13;;;9.73;;
17925;SDS011;9088;55.674;13.354;2023-03-21T11:12:54;10.63;;;10.23;;
17925;SDS011;9088;55.674;13.354;2023-03-21T11:15:26;9.70;;;9.30;;
17925;SDS011;9088;55.674;13.354;2023-03-21T11:17:56;9.83;;;9.43;;
17925;SDS011;9088;55.674;13.354;2023-03-21T11:20:23;10.50;;;10.10;;
17925;SDS011;9088;55.674;13.354;2023-03-21T11:22:52;9.90;;;9.50;;
17925;SDS011;9088;55.674;13.354;2023-03-21T11:25:21;9.60;;;9.20;;
17925;SDS011;9088;55.674;13.354;2023-03-21T11:27:50;10.33;;;9.93;;
17925;SDS011;9088;55.674;13.354;2023-03-21T11:30:19;11.83;;;11.33;;
17925;SDS011;9088;55.674;13.354;2023-03-21T11:32:49;10.40;;;10.00;;
17925;SDS011;9088;55.674;13.354;2023-03-21T11:35:19;9.97;;;9.57;;
17925;SDS011;9088;55.674;13.354;2023-03-21T11:37:49;10.70;;;10.30;;
17925;SDS011;9088;55.674;13.354;2023-03-21T11:40:18;10.70;;;10.30;;
17925;SDS011;9088;55.674;13.354;2023-03-21T11:42:48;11.27;;;10.77;;
17925;SDS011;9088;55.674;13.354;2023-03-21T11:45:18;11.43;;;10.93;;
17925;SDS011;9088;55.674;13.354;2023-03-21T11:47:45;11.07;;;10.67;;
17925;SDS011;9088;55.674;13.354;2023-03-21T11:50:18;10.93;;;10.53;;
17925;SDS011;9088;55.674;13.354;2023-03-21T11:52:51;11.40;;;10.90;;
17925;SDS011;9088;55.674;13.354;2023-03-21T11:55:25;10.93;;;10.53;;
17925;SDS011;9088;55.674;13.354;2023-03-21T12:00:39;10.93;;;10.53;;
17925;SDS011;9088;55.674;13.354;2023-03-21T12:03:17;11.50;;;11.00;;
17925;SDS011;9088;55.674;13.354;2023-03-21T12:05:52;10.77;;;10.37;;
17925;SDS011;9088;55.674;13.354;2023-03-21T12:08:25;11.40;;;10.90;;
17925;SDS011;9088;55.674;13.354;2023-03-21T12:11:00;10.87;;;10.47;;
17925;SDS011;9088;55.674;13.354;2023-03-21T12:13:32;11.53;;;11.03;;
17925;SDS011;9088;55.674;13.354;2023-03-21T12:16:04;10.67;;;10.27;;
17925;SDS011;9088;55.674;13.354;2023-03-21T12:18:40;10.80;;;10.40;;
17925;SDS011;9088;55.674;13.354;2023-03-21T12:21:14;12.67;;;12.17;;
17925;SDS011;9088;55.674;13.354;2023-03-21T12:23:49;12.27;;;11.77;;
17925;SDS011;9088;55.674;13.354;2023-03-21T12:26:24;11.87;;;11.37;;
17925;SDS011;9088;55.674;13.354;2023-03-21T12:31:43;12.23;;;11.73;;
17925;SDS011;9088;55.674;13.354;2023-03-21T12:34:16;11.30;;;10.80;;
17925;SDS011;9088;55.674;13.354;2023-03-21T12:36:53;10.93;;;10.53;;
17925;SDS011;9088;55.674;13.354;2023-03-21T12:39:25;12.47;;;11.97;;
17925;SDS011;9088;55.674;13.354;2023-03-21T12:41:58;12.70;;;12.20;;
17925;SDS011;9088;55.674;13.354;2023-03-21T12:44:30;13.00;;;12.50;;
17925;SDS011;9088;55.674;13.354;2023-03-21T12:47:00;11.77;;;11.27;;
17925;SDS011;9088;55.674;13.354;2023-03-21T12:49:31;12.33;;;11.83;;
17925;SDS011;9088;55.674;13.354;2023-03-21T12:52:01;11.87;;;11.37;;
17925;SDS011;9088;55.674;13.354;2023-03-21T12:54:30;11.67;;;11.17;;
17925;SDS011;9088;55.674;13.354;2023-03-21T12:56:59;12.00;;;11.50;;
17925;SDS011;9088;55.674;13.354;2023-03-21T12:59:30;11.37;;;10.87;;
17925;SDS011;9088;55.674;13.354;2023-03-21T13:02:02;11.93;;;11.43;;
17925;SDS011;9088;55.674;13.354;2023-03-21T13:04:33;11.77;;;11.27;;
17925;SDS011;9088;55.674;13.354;2023-03-21T13:07:04;12.27;;;11.77;;
17925;SDS011;9088;55.674;13.354;2023-03-21T13:09:34;11.37;;;10.87;;
17925;SDS011;9088;55.674;13.354;2023-03-21T13:12:06;12.17;;;11.67;;
17925;SDS011;9088;55.674;13.354;2023-03-21T13:14:37;11.67;;;11.17;;
17925;SDS011;9088;55.674;13.354;2023-03-21T13:17:07;12.47;;;11.97;;
17925;SDS011;9088;55.674;13.354;2023-03-21T13:19:37;10.57;;;10.17;;
17925;SDS011;9088;55.674;13.354;2023-03-21T13:22:08;11.40;;;10.90;;
17925;SDS011;9088;55.674;13.354;2023-03-21T13:24:37;11.43;;;10.93;;
17925;SDS011;9088;55.674;13.354;2023-03-21T13:27:14;11.90;;;11.40;;
17925;SDS011;9088;55.674;13.354;2023-03-21T13:29:44;12.00;;;11.50;;
17925;SDS011;9088;55.674;13.354;2023-03-21T13:32:14;12.30;;;11.80;;
17925;SDS011;9088;55.674;13.354;2023-03-21T13:34:42;11.53;;;11.03;;
17925;SDS011;9088;55.674;13.354;2023-03-21T13:37:16;11.47;;;10.97;;
17925;SDS011;9088;55.674;13.354;2023-03-21T13:39:44;11.57;;;11.07;;
17925;SDS011;9088;55.674;13.354;2023-03-21T13:42:16;11.70;;;11.20;;
17925;SDS011;9088;55.674;13.354;2023-03-21T13:44:46;10.70;;;10.30;;
17925;SDS011;9088;55.674;13.354;2023-03-21T13:47:29;11.53;;;11.03;;
17925;SDS011;9088;55.674;13.354;2023-03-21T13:52:44;11.47;;;10.97;;
17925;SDS011;9088;55.674;13.354;2023-03-21T13:55:34;11.33;;;10.83;;
17925;SDS011;9088;55.674;13.354;2023-03-21T14:01:12;10.77;;;10.37;;
17925;SDS011;9088;55.674;13.354;2023-03-21T14:03:32;11.53;;;11.03;;
17925;SDS011;9088;55.674;13.354;2023-03-21T14:06:00;11.07;;;10.67;;
17925;SDS011;9088;55.674;13.354;2023-03-21T14:08:28;11.60;;;11.10;;
17925;SDS011;9088;55.674;13.354;2023-03-21T14:10:57;11.70;;;11.20;;
17925;SDS011;9088;55.674;13.354;2023-03-21T14:13:25;11.83;;;11.33;;
17925;SDS011;9088;55.674;13.354;2023-03-21T14:15:53;11.70;;;11.20;;
17925;SDS011;9088;55.674;13.354;2023-03-21T14:18:22;11.50;;;11.00;;
17925;SDS011;9088;55.674;13.354;2023-03-21T14:20:51;11.40;;;10.90;;
17925;SDS011;9088;55.674;13.354;2023-03-21T14:23:18;11.13;;;10.70;;
17925;SDS011;9088;55.674;13.354;2023-03-21T14:25:46;11.70;;;11.20;;
17925;SDS011;9088;55.674;13.354;2023-03-21T14:28:15;11.97;;;11.47;;
17925;SDS011;9088;55.674;13.354;2023-03-21T14:30:43;11.70;;;11.20;;
17925;SDS011;9088;55.674;13.354;2023-03-21T14:33:12;12.13;;;11.63;;
17925;SDS011;9088;55.674;13.354;2023-03-21T14:35:41;10.57;;;10.17;;
17925;SDS011;9088;55.674;13.354;2023-03-21T14:38:16;11.50;;;11.00;;
17925;SDS011;9088;55.674;13.354;2023-03-21T14:40:47;11.60;;;11.10;;
17925;SDS011;9088;55.674;13.354;2023-03-21T14:43:15;11.63;;;11.13;;
17925;SDS011;9088;55.674;13.354;2023-03-21T14:45:45;11.73;;;11.23;;
17925;SDS011;9088;55.674;13.354;2023-03-21T14:48:13;12.30;;;11.80;;
17925;SDS011;9088;55.674;13.354;2023-03-21T14:50:41;12.20;;;11.70;;
17925;SDS011;9088;55.674;13.354;2023-03-21T14:53:13;11.97;;;11.47;;
17925;SDS011;9088;55.674;13.354;2023-03-21T14:55:41;12.20;;;11.70;;
17925;SDS011;9088;55.674;13.354;2023-03-21T14:58:12;12.43;;;11.93;;
17925;SDS011;9088;55.674;13.354;2023-03-21T15:00:42;12.80;;;12.30;;
17925;SDS011;9088;55.674;13.354;2023-03-21T15:03:09;13.10;;;12.60;;
17925;SDS011;9088;55.674;13.354;2023-03-21T15:05:37;13.40;;;12.87;;
17925;SDS011;9088;55.674;13.354;2023-03-21T15:08:11;11.83;;;11.33;;